CheckWX is a tool to help pilots better visualize weather data.  It is not intended as a substitute for an official pre-flight weather briefing.

12:12:48 UTC

KGMU TAF
Greenville Downtown Airport
Greenville, South Carolina, USA
KGMU 131139Z 1312/1412 05009KT P6SM SKC FM132000 07006KT P6SM SKC FM140200 VRB03KT P6SM SKC

Nov-13@
12:00 UTC

Nov-13 @ 12:00 UTC

Nov-13@
20:00 UTC

Nov-13 @ 20:00 UTC

KGMU 131139Z 1312/1412 05009KT P6SM SKC
Wind
  • 050° at 9 KTS
Cloud Levels
  • Clear skies

Nov-13@
20:00 UTC

Nov-13 @ 20:00 UTC

Nov-14@
02:00 UTC

Nov-14 @ 02:00 UTC

FM132000 07006KT P6SM SKC

From

From Standard forecast or significant change

Wind
  • 070° at 6 KTS
Cloud Levels
  • Clear skies

Nov-14@
02:00 UTC

Nov-14 @ 02:00 UTC

Nov-14@
12:00 UTC

Nov-14 @ 12:00 UTC

FM140200 VRB03KT P6SM SKC

From

From Standard forecast or significant change

Wind
  • Variable at 3 KTS
Cloud Levels
  • Clear skies